createdAt,value
2023-04-29T00:01:40.099Z,100130.34
2023-04-29T00:04:07.054Z,100126.22
2023-04-29T00:06:33.584Z,100125.00
2023-04-29T00:09:02.610Z,100119.97
2023-04-29T00:11:29.013Z,100130.50
2023-04-29T00:13:55.481Z,100127.59
2023-04-29T00:16:22.017Z,100128.03
2023-04-29T00:18:48.421Z,100126.47
2023-04-29T00:21:14.769Z,100127.28
2023-04-29T00:23:41.310Z,100123.44
2023-04-29T00:26:07.718Z,100124.13
2023-04-29T00:28:34.166Z,100128.06
2023-04-29T00:31:00.642Z,100132.13
2023-04-29T00:33:27.294Z,100124.78
2023-04-29T00:35:53.773Z,100131.59
2023-04-29T00:38:21.179Z,100126.06
2023-04-29T00:40:48.002Z,100124.97
2023-04-29T00:43:14.387Z,100129.84
2023-04-29T00:45:41.055Z,100131.13
2023-04-29T00:48:07.891Z,100138.06
2023-04-29T00:50:34.767Z,100132.78
2023-04-29T00:53:01.478Z,100140.91
2023-04-29T00:55:28.572Z,100135.63
2023-04-29T00:57:55.090Z,100135.38
2023-04-29T01:00:21.743Z,100139.81
2023-04-29T01:02:50.082Z,100141.34
2023-04-29T01:05:17.949Z,100136.75
2023-04-29T01:07:56.631Z,100143.47
2023-04-29T01:10:29.180Z,100139.59
2023-04-29T01:13:37.090Z,100143.19
2023-04-29T01:16:08.563Z,100139.59
2023-04-29T01:18:44.007Z,100142.41
2023-04-29T01:21:10.414Z,100139.06
2023-04-29T01:23:36.925Z,100137.38
2023-04-29T01:26:03.935Z,100137.09
2023-04-29T01:28:45.874Z,100141.19
2023-04-29T01:31:25.221Z,100141.03
2023-04-29T01:34:11.781Z,100143.34
2023-04-29T01:36:44.247Z,100148.75
2023-04-29T01:39:27.254Z,100149.16
2023-04-29T01:42:02.749Z,100149.16
2023-04-29T01:44:31.772Z,100141.38
2023-04-29T01:46:59.442Z,100144.72
2023-04-29T01:49:28.953Z,100143.88
2023-04-29T01:51:56.017Z,100153.47
2023-04-29T01:54:22.648Z,100145.53
2023-04-29T01:56:49.490Z,100149.84
2023-04-29T01:59:20.895Z,100153.66
2023-04-29T02:01:47.709Z,100152.22
2023-04-29T02:04:14.195Z,100154.50
2023-04-29T02:06:40.675Z,100148.41
2023-04-29T02:09:07.163Z,100146.88
2023-04-29T02:11:35.793Z,100149.53
2023-04-29T02:14:02.147Z,100152.03
2023-04-29T02:16:28.583Z,100159.53
2023-04-29T02:18:55.062Z,100163.13
2023-04-29T02:21:21.523Z,100154.25
2023-04-29T02:23:48.069Z,100167.22
2023-04-29T02:26:15.455Z,100164.56
2023-04-29T02:28:44.549Z,100175.13
2023-04-29T02:31:13.724Z,100171.66
2023-04-29T02:33:40.173Z,100179.28
2023-04-29T02:36:06.710Z,100176.41
2023-04-29T02:38:33.201Z,100182.66
2023-04-29T02:40:59.864Z,100185.84
2023-04-29T02:43:26.318Z,100188.47
2023-04-29T02:45:52.774Z,100195.22
2023-04-29T02:48:19.204Z,100188.28
2023-04-29T02:50:45.688Z,100190.78
2023-04-29T02:53:14.362Z,100194.13
2023-04-29T02:55:44.024Z,100189.56
2023-04-29T02:58:10.565Z,100186.34
2023-04-29T03:00:36.966Z,100186.19
2023-04-29T03:03:06.067Z,100190.22
2023-04-29T03:05:32.939Z,100189.13
2023-04-29T03:07:59.287Z,100189.13
2023-04-29T03:10:26.426Z,100181.59
2023-04-29T03:12:54.991Z,100189.88
2023-04-29T03:15:22.486Z,100194.03
2023-04-29T03:17:49.432Z,100181.47
2023-04-29T03:20:15.929Z,100189.78
2023-04-29T03:22:42.273Z,100189.34
2023-04-29T03:25:10.610Z,100181.69
2023-04-29T03:27:37.115Z,100180.25
2023-04-29T03:30:06.320Z,100184.13
2023-04-29T03:32:35.331Z,100173.84
2023-04-29T03:35:05.326Z,100178.78
2023-04-29T03:37:31.729Z,100176.53
2023-04-29T03:39:58.217Z,100177.91
2023-04-29T03:42:29.281Z,100184.75
2023-04-29T03:44:57.830Z,100183.34
2023-04-29T03:47:24.370Z,100185.66
2023-04-29T03:49:51.038Z,100188.78
2023-04-29T03:52:17.625Z,100189.88
2023-04-29T03:54:44.246Z,100193.72
2023-04-29T03:57:12.980Z,100191.81
2023-04-29T03:59:40.135Z,100204.41
2023-04-29T04:02:08.982Z,100196.66
2023-04-29T04:04:38.169Z,100202.75
2023-04-29T04:07:04.902Z,100207.19
2023-04-29T04:09:31.388Z,100217.00
2023-04-29T04:11:57.752Z,100215.22
2023-04-29T04:14:24.262Z,100217.97
2023-04-29T04:16:50.789Z,100216.31
2023-04-29T04:19:17.349Z,100221.56
2023-04-29T04:21:43.720Z,100225.16
2023-04-29T04:24:10.292Z,100227.78
2023-04-29T04:26:36.933Z,100227.88
2023-04-29T04:29:03.369Z,100231.41
2023-04-29T04:31:30.234Z,100238.06
2023-04-29T04:33:57.715Z,100241.56
2023-04-29T04:36:24.183Z,100243.22
2023-04-29T04:38:53.255Z,100233.84
2023-04-29T04:41:19.688Z,100246.41
2023-04-29T04:43:46.273Z,100245.47
2023-04-29T04:46:16.782Z,100249.75
2023-04-29T04:48:45.678Z,100248.06
2023-04-29T04:51:15.084Z,100247.94
2023-04-29T04:53:41.530Z,100256.88
2023-04-29T04:56:08.403Z,100257.84
2023-04-29T04:58:34.816Z,100261.66
2023-04-29T05:01:01.511Z,100270.28
2023-04-29T05:03:28.463Z,100270.47
2023-04-29T05:06:00.953Z,100278.13
2023-04-29T05:08:27.607Z,100275.97
2023-04-29T05:10:54.485Z,100288.63
2023-04-29T05:13:21.315Z,100280.72
2023-04-29T05:15:50.202Z,100296.28
2023-04-29T05:18:17.139Z,100297.47
2023-04-29T05:20:43.585Z,100303.31
2023-04-29T05:23:10.341Z,100310.28
2023-04-29T05:25:36.773Z,100307.50
2023-04-29T05:28:05.595Z,100310.63
2023-04-29T05:30:34.420Z,100315.91
2023-04-29T05:33:03.567Z,100313.25
2023-04-29T05:35:31.094Z,100317.56
2023-04-29T05:37:57.627Z,100318.16
2023-04-29T05:40:24.142Z,100322.06
2023-04-29T05:42:50.546Z,100321.22
2023-04-29T05:45:17.123Z,100324.56
2023-04-29T05:47:43.630Z,100324.44
2023-04-29T05:50:11.439Z,100332.34
2023-04-29T05:52:38.455Z,100332.13
2023-04-29T05:55:05.269Z,100335.69
2023-04-29T05:57:32.045Z,100339.53
2023-04-29T05:59:59.955Z,100345.50
2023-04-29T06:02:29.536Z,100341.44
2023-04-29T06:04:56.813Z,100346.19
2023-04-29T06:07:24.024Z,100350.94
2023-04-29T06:09:53.351Z,100345.28
2023-04-29T06:12:20.082Z,100357.00
2023-04-29T06:14:46.611Z,100349.00
2023-04-29T06:17:13.100Z,100358.59
2023-04-29T06:19:39.603Z,100358.09
2023-04-29T06:22:06.062Z,100367.13
2023-04-29T06:24:32.509Z,100364.59
2023-04-29T06:27:02.259Z,100366.78
2023-04-29T06:29:28.660Z,100362.47
2023-04-29T06:31:56.091Z,100370.38
2023-04-29T06:34:22.522Z,100374.97
2023-04-29T06:36:48.969Z,100369.50
2023-04-29T06:39:15.725Z,100380.38
2023-04-29T06:41:42.102Z,100381.47
2023-04-29T06:44:09.091Z,100389.00
2023-04-29T06:46:35.927Z,100390.41
2023-04-29T06:49:02.363Z,100389.34
2023-04-29T06:51:32.227Z,100393.56
2023-04-29T06:53:58.710Z,100398.09
2023-04-29T06:56:25.549Z,100393.31
2023-04-29T06:58:52.092Z,100397.50
2023-04-29T07:01:18.497Z,100394.47
2023-04-29T07:03:45.331Z,100403.63
2023-04-29T07:06:12.649Z,100402.94
2023-04-29T07:08:39.035Z,100410.44
2023-04-29T07:11:05.668Z,100408.66
2023-04-29T07:13:34.872Z,100408.06
2023-04-29T07:16:01.235Z,100412.13
2023-04-29T07:18:30.136Z,100427.56
2023-04-29T07:21:01.587Z,100427.00
2023-04-29T07:23:27.970Z,100433.94
2023-04-29T07:25:54.339Z,100430.47
2023-04-29T07:28:22.946Z,100442.53
2023-04-29T07:30:49.485Z,100432.47
2023-04-29T07:33:18.708Z,100443.53
2023-04-29T07:35:50.292Z,100452.16
2023-04-29T07:38:16.701Z,100453.84
2023-04-29T07:40:43.218Z,100452.09
2023-04-29T07:43:09.844Z,100457.88
2023-04-29T07:45:36.335Z,100463.53
2023-04-29T07:48:02.957Z,100463.91
2023-04-29T07:50:29.598Z,100467.16
2023-04-29T07:52:57.783Z,100467.16
2023-04-29T07:55:27.070Z,100472.69
2023-04-29T07:57:53.783Z,100470.66
2023-04-29T08:00:20.731Z,100492.97
2023-04-29T08:02:47.317Z,100495.59
2023-04-29T08:05:14.106Z,100493.81
2023-04-29T08:07:42.988Z,100492.84
2023-04-29T08:10:14.278Z,100492.84
2023-04-29T08:12:45.395Z,100501.47
2023-04-29T08:15:11.945Z,100494.25
2023-04-29T08:17:38.399Z,100496.66
2023-04-29T08:20:05.454Z,100498.56
2023-04-29T08:22:32.044Z,100488.84
2023-04-29T08:25:03.124Z,100502.53
2023-04-29T08:27:34.587Z,100506.34
2023-04-29T08:30:03.412Z,100501.69
2023-04-29T08:32:29.801Z,100490.66
2023-04-29T08:34:56.590Z,100500.69
2023-04-29T08:37:23.086Z,100497.66
2023-04-29T08:39:51.855Z,100492.78
2023-04-29T08:42:28.752Z,100497.66
2023-04-29T08:44:56.284Z,100495.78
2023-04-29T08:47:23.622Z,100499.81
2023-04-29T08:49:50.212Z,100503.03
2023-04-29T08:52:16.736Z,100486.50
2023-04-29T08:54:43.124Z,100501.69
2023-04-29T08:57:11.754Z,100503.31
2023-04-29T08:59:38.223Z,100513.84
2023-04-29T09:02:12.268Z,100502.50
2023-04-29T09:04:55.897Z,100511.81
2023-04-29T09:07:23.704Z,100502.44
2023-04-29T09:09:51.934Z,100513.19
2023-04-29T09:12:18.696Z,100511.06
2023-04-29T09:14:47.458Z,100535.91
2023-04-29T09:17:16.527Z,100526.63
2023-04-29T09:19:46.646Z,100506.84
2023-04-29T09:22:13.119Z,100522.28
2023-04-29T09:24:39.949Z,100506.19
2023-04-29T09:27:09.137Z,100522.16
2023-04-29T09:29:38.537Z,100519.44
2023-04-29T09:32:19.998Z,100517.88
2023-04-29T09:34:46.520Z,100515.13
2023-04-29T09:37:27.923Z,100505.66
2023-04-29T09:39:55.017Z,100505.53
2023-04-29T09:42:21.489Z,100501.59
2023-04-29T09:44:48.306Z,100514.03
2023-04-29T09:47:17.315Z,100507.91
2023-04-29T09:49:49.892Z,100518.81
2023-04-29T09:52:20.936Z,100520.25
2023-04-29T09:54:47.346Z,100513.53
2023-04-29T09:57:16.152Z,100520.53
2023-04-29T09:59:43.886Z,100523.94
2023-04-29T10:02:18.038Z,100512.28
2023-04-29T10:04:47.063Z,100524.69
2023-04-29T10:07:16.356Z,100504.22
2023-04-29T10:09:47.854Z,100510.63
2023-04-29T10:12:20.180Z,100518.16
2023-04-29T10:15:06.854Z,100488.06
2023-04-29T10:17:43.464Z,100498.94
2023-04-29T10:20:14.478Z,100476.47
2023-04-29T10:22:47.983Z,100481.53
2023-04-29T10:25:21.313Z,100494.03
2023-04-29T10:27:49.144Z,100507.25
2023-04-29T10:30:17.715Z,100493.16
2023-04-29T10:32:51.082Z,100472.97
2023-04-29T10:35:20.538Z,100489.22
2023-04-29T10:37:51.181Z,100490.31
2023-04-29T10:40:18.560Z,100490.19
2023-04-29T10:42:52.529Z,100497.75
2023-04-29T10:45:31.186Z,100500.56
2023-04-29T10:48:21.211Z,100486.56
2023-04-29T10:50:47.820Z,100469.63
2023-04-29T10:53:15.031Z,100476.44
2023-04-29T10:55:47.316Z,100460.56
2023-04-29T10:58:45.116Z,100485.69
2023-04-29T11:01:17.858Z,100477.97
2023-04-29T11:04:11.019Z,100481.28
2023-04-29T11:06:37.651Z,100465.41
2023-04-29T11:09:09.314Z,100486.44
2023-04-29T11:11:46.740Z,100476.97
2023-04-29T11:14:14.471Z,100484.06
2023-04-29T11:16:58.916Z,100479.34
2023-04-29T11:19:36.606Z,100477.00
2023-04-29T11:22:24.320Z,100478.16
2023-04-29T11:24:58.347Z,100469.50
2023-04-29T11:27:32.142Z,100469.91
2023-04-29T11:29:59.618Z,100468.03
2023-04-29T11:32:31.307Z,100456.09
2023-04-29T11:35:15.057Z,100456.13
2023-04-29T11:37:43.424Z,100453.66
2023-04-29T11:40:14.164Z,100471.66
2023-04-29T11:42:48.815Z,100451.31
2023-04-29T11:45:19.536Z,100455.31
2023-04-29T11:47:47.416Z,100464.75
2023-04-29T11:50:17.710Z,100470.59
2023-04-29T11:52:46.606Z,100454.25
2023-04-29T11:55:14.677Z,100467.91
2023-04-29T11:57:41.706Z,100483.16
2023-04-29T12:00:13.525Z,100494.84
2023-04-29T12:02:45.050Z,100486.50
2023-04-29T12:05:12.898Z,100491.31
2023-04-29T12:07:40.159Z,100488.94
2023-04-29T12:10:12.965Z,100493.13
2023-04-29T12:12:44.011Z,100506.03
2023-04-29T12:15:11.238Z,100492.19
2023-04-29T12:17:41.171Z,100501.84
2023-04-29T12:20:10.470Z,100499.41
2023-04-29T12:22:37.325Z,100494.06
2023-04-29T12:25:07.598Z,100511.50
2023-04-29T12:27:36.115Z,100501.44
2023-04-29T12:30:02.634Z,100488.75
2023-04-29T12:32:29.101Z,100505.16
2023-04-29T12:34:55.978Z,100498.63
2023-04-29T12:37:23.527Z,100504.00
2023-04-29T12:39:50.787Z,100503.16
2023-04-29T12:42:17.348Z,100509.94
2023-04-29T12:44:47.645Z,100507.53
2023-04-29T12:47:17.565Z,100506.00
2023-04-29T12:49:48.367Z,100519.75
2023-04-29T12:52:15.040Z,100525.88
2023-04-29T12:54:44.555Z,100516.47
2023-04-29T12:57:24.737Z,100515.63
2023-04-29T12:59:56.079Z,100510.84
2023-04-29T13:02:24.738Z,100505.84
2023-04-29T13:04:51.318Z,100487.59
2023-04-29T13:07:18.455Z,100504.06
2023-04-29T13:09:44.855Z,100512.44
2023-04-29T13:12:13.624Z,100510.19
2023-04-29T13:14:40.053Z,100512.16
2023-04-29T13:17:08.965Z,100527.00
2023-04-29T13:19:51.310Z,100514.97
2023-04-29T13:22:18.974Z,100509.16
2023-04-29T13:24:48.360Z,100523.00
2023-04-29T13:27:14.805Z,100522.59
2023-04-29T13:29:41.305Z,100522.03
2023-04-29T13:32:08.973Z,100537.78
2023-04-29T13:34:38.049Z,100517.69
2023-04-29T13:37:04.445Z,100525.50
2023-04-29T13:39:31.634Z,100521.94
2023-04-29T13:41:59.546Z,100528.38
2023-04-29T13:44:44.481Z,100534.44
2023-04-29T13:47:18.202Z,100530.34
2023-04-29T13:54:58.838Z,100534.97
2023-04-29T13:58:30.770Z,100527.63
2023-04-29T14:00:54.966Z,100529.88
2023-04-29T14:03:13.978Z,100552.72
2023-04-29T14:05:42.005Z,100546.63
2023-04-29T14:08:08.463Z,100540.25
2023-04-29T14:10:35.259Z,100548.88
2023-04-29T14:13:01.850Z,100539.50
2023-04-29T14:15:28.869Z,100549.59
2023-04-29T14:17:55.990Z,100550.16
2023-04-29T14:20:22.487Z,100553.47
2023-04-29T14:22:48.909Z,100547.50
2023-04-29T14:25:15.501Z,100549.44
2023-04-29T14:27:49.111Z,100549.59
2023-04-29T14:30:15.728Z,100550.00
2023-04-29T14:32:42.197Z,100548.88
2023-04-29T14:35:11.372Z,100554.75
2023-04-29T14:37:37.880Z,100560.19
2023-04-29T14:40:05.060Z,100556.97
2023-04-29T14:42:34.522Z,100552.91
2023-04-29T14:45:01.082Z,100557.63
2023-04-29T14:47:28.984Z,100561.38
2023-04-29T14:50:00.343Z,100552.03
2023-04-29T14:52:26.852Z,100566.81
2023-04-29T14:54:53.522Z,100561.41
2023-04-29T14:57:19.962Z,100572.03
2023-04-29T14:59:49.687Z,100555.84
2023-04-29T15:02:16.150Z,100570.94
2023-04-29T15:04:45.926Z,100567.16
2023-04-29T15:07:13.766Z,100574.28
2023-04-29T15:09:42.851Z,100569.50
2023-04-29T15:12:09.561Z,100582.78
2023-04-29T15:14:38.390Z,100567.84
2023-04-29T15:17:05.124Z,100575.34
2023-04-29T15:19:31.710Z,100567.09
2023-04-29T15:22:00.676Z,100562.88
2023-04-29T15:24:27.158Z,100569.53
2023-04-29T15:26:53.583Z,100561.59
2023-04-29T15:29:20.391Z,100573.56
2023-04-29T15:31:49.405Z,100559.22
2023-04-29T15:34:16.014Z,100563.25
2023-04-29T15:36:42.790Z,100561.00
2023-04-29T15:39:10.994Z,100558.91
2023-04-29T15:41:38.082Z,100563.22
2023-04-29T15:44:07.677Z,100566.59
2023-04-29T15:46:34.350Z,100573.63
2023-04-29T15:49:01.084Z,100571.13
2023-04-29T15:51:27.459Z,100573.63
2023-04-29T15:53:53.848Z,100573.34
2023-04-29T15:56:20.910Z,100581.50
2023-04-29T15:58:47.445Z,100583.84
2023-04-29T16:01:16.327Z,100583.72
2023-04-29T16:03:42.811Z,100597.13
2023-04-29T16:06:12.955Z,100585.97
2023-04-29T16:08:39.479Z,100581.66
2023-04-29T16:11:05.959Z,100578.16
2023-04-29T16:13:33.200Z,100578.75
2023-04-29T16:16:01.833Z,100579.88
2023-04-29T16:18:28.547Z,100579.16
2023-04-29T16:20:55.070Z,100581.13
2023-04-29T16:23:22.138Z,100596.88
2023-04-29T16:25:50.019Z,100599.38
2023-04-29T16:28:17.228Z,100609.00
2023-04-29T16:30:43.879Z,100611.91
2023-04-29T16:33:10.305Z,100599.47
2023-04-29T16:35:41.267Z,100618.59
2023-04-29T16:38:07.760Z,100604.91
2023-04-29T16:40:34.465Z,100614.09
2023-04-29T16:43:00.938Z,100617.72
2023-04-29T16:45:27.397Z,100610.34
2023-04-29T16:47:54.611Z,100610.34
2023-04-29T16:50:21.691Z,100611.31
2023-04-29T16:52:48.591Z,100606.25
2023-04-29T16:55:15.270Z,100612.41
2023-04-29T16:57:42.034Z,100610.59
2023-04-29T17:00:12.129Z,100614.47
2023-04-29T17:02:42.869Z,100628.81
2023-04-29T17:05:10.809Z,100614.88
2023-04-29T17:07:37.560Z,100615.13
2023-04-29T17:10:05.145Z,100624.06
2023-04-29T17:12:33.999Z,100621.69
2023-04-29T17:15:00.602Z,100626.78
2023-04-29T17:17:27.287Z,100624.16
2023-04-29T17:19:55.397Z,100630.03
2023-04-29T17:22:22.351Z,100631.13
2023-04-29T17:24:53.476Z,100631.13
2023-04-29T17:27:19.976Z,100632.09
2023-04-29T17:29:46.659Z,100635.56
2023-04-29T17:32:15.433Z,100628.47
2023-04-29T17:34:41.979Z,100631.25
2023-04-29T17:37:08.499Z,100637.66
2023-04-29T17:39:35.474Z,100626.78
2023-04-29T17:42:01.883Z,100637.66
2023-04-29T17:44:28.337Z,100642.94
2023-04-29T17:46:54.768Z,100643.22
2023-04-29T17:49:21.280Z,100643.50
2023-04-29T17:51:47.725Z,100641.81
2023-04-29T17:54:16.359Z,100642.06
2023-04-29T17:56:42.836Z,100649.56
2023-04-29T17:59:09.271Z,100644.28
2023-04-29T18:01:36.120Z,100643.56
2023-04-29T18:04:07.660Z,100651.78
2023-04-29T18:06:34.932Z,100655.66
2023-04-29T18:09:01.428Z,100651.34
2023-04-29T18:11:27.857Z,100654.81
2023-04-29T18:13:54.503Z,100668.44
2023-04-29T18:16:21.217Z,100669.78
2023-04-29T18:18:49.061Z,100669.22
2023-04-29T18:21:25.436Z,100668.25
2023-04-29T18:23:51.867Z,100663.94
2023-04-29T18:26:20.583Z,100669.47
2023-04-29T18:28:47.828Z,100657.34
2023-04-29T18:31:16.079Z,100661.91
2023-04-29T18:33:43.289Z,100668.03
2023-04-29T18:36:09.976Z,100661.78
2023-04-29T18:38:36.883Z,100670.22
2023-04-29T18:41:03.473Z,100673.00
2023-04-29T18:43:32.295Z,100679.63
2023-04-29T18:45:58.764Z,100684.91
2023-04-29T18:48:25.411Z,100678.22
2023-04-29T18:50:52.642Z,100680.97
2023-04-29T18:53:19.444Z,100689.03
2023-04-29T18:55:46.744Z,100693.50
2023-04-29T18:58:18.104Z,100703.50
2023-04-29T19:00:44.507Z,100702.78
2023-04-29T19:03:11.490Z,100710.84
2023-04-29T19:05:38.251Z,100705.91
2023-04-29T19:08:04.936Z,100711.19
2023-04-29T19:10:31.336Z,100714.09
2023-04-29T19:12:57.913Z,100709.28
2023-04-29T19:15:27.892Z,100700.50
2023-04-29T19:17:55.072Z,100707.84
2023-04-29T19:20:21.523Z,100714.56
2023-04-29T19:22:48.607Z,100712.63
2023-04-29T19:25:17.377Z,100712.88
2023-04-29T19:27:49.156Z,100715.66
2023-04-29T19:30:16.514Z,100713.41
2023-04-29T19:32:44.787Z,100714.22
2023-04-29T19:35:11.988Z,100720.63
2023-04-29T19:37:38.366Z,100721.84
2023-04-29T19:40:10.549Z,100731.94
2023-04-29T19:42:37.905Z,100731.94
2023-04-29T19:45:07.625Z,100737.22
2023-04-29T19:47:34.799Z,100736.63
2023-04-29T19:50:01.997Z,100741.78
2023-04-29T19:52:29.782Z,100732.91
2023-04-29T19:54:56.541Z,100739.66
2023-04-29T19:57:23.204Z,100740.50
2023-04-29T19:59:52.170Z,100744.31
2023-04-29T20:02:21.426Z,100735.69
2023-04-29T20:04:48.243Z,100745.41
2023-04-29T20:07:17.083Z,100740.13
2023-04-29T20:09:46.025Z,100756.50
2023-04-29T20:12:12.718Z,100760.09
2023-04-29T20:14:39.239Z,100751.47
2023-04-29T20:17:06.131Z,100748.69
2023-04-29T20:19:32.682Z,100750.00
2023-04-29T20:22:01.380Z,100759.13
2023-04-29T20:24:29.980Z,100762.28
2023-04-29T20:26:56.490Z,100762.75
2023-04-29T20:29:23.062Z,100768.53
2023-04-29T20:31:49.514Z,100761.78
2023-04-29T20:34:16.060Z,100772.59
2023-04-29T20:36:42.609Z,100765.38
2023-04-29T20:39:11.470Z,100769.25
2023-04-29T20:41:38.103Z,100774.78
2023-04-29T20:44:04.596Z,100772.38
2023-04-29T20:46:31.616Z,100780.78
2023-04-29T20:48:58.350Z,100782.69
2023-04-29T20:51:24.838Z,100779.22
2023-04-29T20:53:51.519Z,100774.53
2023-04-29T20:56:17.918Z,100770.47
2023-04-29T20:58:46.751Z,100773.31
2023-04-29T21:01:13.304Z,100774.28
2023-04-29T21:03:40.506Z,100777.16
2023-04-29T21:06:09.597Z,100774.28
2023-04-29T21:08:36.093Z,100779.81
2023-04-29T21:11:02.832Z,100774.78
2023-04-29T21:13:29.214Z,100780.06
2023-04-29T21:15:55.706Z,100779.09
2023-04-29T21:18:22.588Z,100771.03
2023-04-29T21:20:49.107Z,100783.41
2023-04-29T21:23:15.518Z,100785.59
2023-04-29T21:25:46.902Z,100782.44
2023-04-29T21:28:14.892Z,100783.41
2023-04-29T21:30:42.743Z,100783.53
2023-04-29T21:33:09.159Z,100787.97
2023-04-29T21:35:35.721Z,100786.28
2023-04-29T21:38:02.101Z,100777.41
2023-04-29T21:40:28.936Z,100781.84
2023-04-29T21:42:57.481Z,100775.72
2023-04-29T21:45:23.888Z,100782.09
2023-04-29T21:47:50.589Z,100775.25
2023-04-29T21:50:17.243Z,100778.13
2023-04-29T21:52:43.860Z,100774.88
2023-04-29T21:55:10.568Z,100786.38
2023-04-29T21:57:44.093Z,100799.72
2023-04-29T22:00:28.282Z,100793.84
2023-04-29T22:02:54.793Z,100788.91
2023-04-29T22:05:21.225Z,100793.84
2023-04-29T22:07:47.607Z,100800.91
2023-04-29T22:10:16.218Z,100800.44
2023-04-29T22:12:42.764Z,100802.72
2023-04-29T22:15:24.595Z,100809.31
2023-04-29T22:17:54.638Z,100807.50
2023-04-29T22:20:21.312Z,100812.91
2023-04-29T22:22:50.425Z,100812.41
2023-04-29T22:25:18.036Z,100815.25
2023-04-29T22:27:47.139Z,100817.16
2023-04-29T22:30:17.577Z,100812.97
2023-04-29T22:32:44.472Z,100811.53
2023-04-29T22:35:11.251Z,100813.41
2023-04-29T22:37:37.744Z,100806.34
2023-04-29T22:40:04.578Z,100816.16
2023-04-29T22:42:31.036Z,100808.97
2023-04-29T22:44:57.515Z,100805.63
2023-04-29T22:47:23.912Z,100811.38
2023-04-29T22:49:50.374Z,100815.81
2023-04-29T22:52:19.431Z,100810.41
2023-04-29T22:54:46.182Z,100816.66
2023-04-29T22:57:12.909Z,100807.78
2023-04-29T22:59:39.337Z,100812.22
2023-04-29T23:02:08.369Z,100812.81
2023-04-29T23:04:34.814Z,100818.56
2023-04-29T23:07:01.388Z,100807.28
2023-04-29T23:09:28.038Z,100824.06
2023-04-29T23:11:54.594Z,100815.63
2023-04-29T23:14:21.632Z,100816.72
2023-04-29T23:16:48.057Z,100825.69
2023-04-29T23:19:14.525Z,100830.50
2023-04-29T23:21:40.981Z,100831.53
2023-04-29T23:24:07.390Z,100835.13
2023-04-29T23:26:34.011Z,100837.88
2023-04-29T23:29:00.577Z,100839.78
2023-04-29T23:31:26.979Z,100840.88
2023-04-29T23:33:56.095Z,100828.63
2023-04-29T23:36:22.519Z,100838.34
2023-04-29T23:38:48.899Z,100829.47
2023-04-29T23:41:15.588Z,100834.97
2023-04-29T23:43:44.317Z,100837.94
2023-04-29T23:46:10.736Z,100830.97
2023-04-29T23:48:37.188Z,100831.22
2023-04-29T23:51:03.629Z,100839.94
2023-04-29T23:53:32.483Z,100826.78
2023-04-29T23:55:58.984Z,100828.44
2023-04-29T23:58:25.416Z,100829.53
